Terminal Aerodrome Forecast
Issued by NWS Brownsville, TX

Home | Current Version | Previous Version | Text Only | Print | Product List | Glossary On
Versions: 1 2 3 4 5 6 7 8 9 10 11 12 13 14 15 16 17 18
118
FTUS44 KBRO 011343 AAA
TAFMFE
TAF AMD
KMFE 011343Z 0114/0212 09009KT 3SM HZ BKN007 BKN016 OVC035
     FM011500 11009KT 4SM HZ BKN020
     FM011800 12012KT 6SM HZ SCT030
     FM020500 12009KT 5SM BR BKN025
     FM020900 07005KT 5SM BR OVC025=

USA.gov is the U.S. government's official web portal to all federal, state and local government web resources and services.